sensor_id;sensor_type;location;lat;lon;timestamp;temperature;humidity
22917;DHT22;11624;53.250;7.456;2024-02-15T00:00:07;18.05;61.20
22917;DHT22;11624;53.250;7.456;2024-02-15T00:02:37;18.00;61.26
22917;DHT22;11624;53.250;7.456;2024-02-15T00:05:06;18.00;61.05
22917;DHT22;11624;53.250;7.456;2024-02-15T00:07:35;18.06;61.09
22917;DHT22;11624;53.250;7.456;2024-02-15T00:10:04;18.05;61.08
22917;DHT22;11624;53.250;7.456;2024-02-15T00:12:32;18.09;60.92
22917;DHT22;11624;53.250;7.456;2024-02-15T00:15:01;18.00;61.14
22917;DHT22;11624;53.250;7.456;2024-02-15T00:17:30;18.09;60.87
22917;DHT22;11624;53.250;7.456;2024-02-15T00:20:02;17.99;60.99
22917;DHT22;11624;53.250;7.456;2024-02-15T00:22:31;18.04;61.25
22917;DHT22;11624;53.250;7.456;2024-02-15T00:25:00;18.06;61.22
22917;DHT22;11624;53.250;7.456;2024-02-15T00:27:29;18.08;61.18
22917;DHT22;11624;53.250;7.456;2024-02-15T00:29:59;18.00;61.34
22917;DHT22;11624;53.250;7.456;2024-02-15T00:32:28;18.06;61.24
22917;DHT22;11624;53.250;7.456;2024-02-15T00:34:57;18.06;61.15
22917;DHT22;11624;53.250;7.456;2024-02-15T00:37:27;18.08;61.15
22917;DHT22;11624;53.250;7.456;2024-02-15T00:39:56;18.05;61.28
22917;DHT22;11624;53.250;7.456;2024-02-15T00:42:24;18.05;61.37
22917;DHT22;11624;53.250;7.456;2024-02-15T00:44:53;17.99;61.48
22917;DHT22;11624;53.250;7.456;2024-02-15T00:47:21;18.00;61.44
22917;DHT22;11624;53.250;7.456;2024-02-15T00:49:50;18.10;61.22
22917;DHT22;11624;53.250;7.456;2024-02-15T00:52:18;17.97;61.54
22917;DHT22;11624;53.250;7.456;2024-02-15T00:54:48;18.00;61.46
22917;DHT22;11624;53.250;7.456;2024-02-15T00:57:17;18.04;61.41
22917;DHT22;11624;53.250;7.456;2024-02-15T00:59:45;18.00;61.58
22917;DHT22;11624;53.250;7.456;2024-02-15T01:02:14;18.04;61.41
22917;DHT22;11624;53.250;7.456;2024-02-15T01:04:43;18.03;61.43
22917;DHT22;11624;53.250;7.456;2024-02-15T01:07:12;18.04;61.49
22917;DHT22;11624;53.250;7.456;2024-02-15T01:09:41;18.14;61.20
22917;DHT22;11624;53.250;7.456;2024-02-15T01:12:11;18.11;61.09
22917;DHT22;11624;53.250;7.456;2024-02-15T01:14:39;18.06;61.39
22917;DHT22;11624;53.250;7.456;2024-02-15T01:17:08;18.05;61.39
22917;DHT22;11624;53.250;7.456;2024-02-15T01:19:36;18.06;61.45
22917;DHT22;11624;53.250;7.456;2024-02-15T01:22:05;18.05;61.43
22917;DHT22;11624;53.250;7.456;2024-02-15T01:24:34;18.11;61.25
22917;DHT22;11624;53.250;7.456;2024-02-15T01:27:03;18.03;61.51
22917;DHT22;11624;53.250;7.456;2024-02-15T01:29:36;18.02;61.50
22917;DHT22;11624;53.250;7.456;2024-02-15T01:32:05;17.97;61.55
22917;DHT22;11624;53.250;7.456;2024-02-15T01:34:34;18.05;61.37
22917;DHT22;11624;53.250;7.456;2024-02-15T01:37:03;18.10;61.16
22917;DHT22;11624;53.250;7.456;2024-02-15T01:39:31;18.09;61.32
22917;DHT22;11624;53.250;7.456;2024-02-15T01:41:59;18.03;61.47
22917;DHT22;11624;53.250;7.456;2024-02-15T01:44:30;18.09;61.31
22917;DHT22;11624;53.250;7.456;2024-02-15T01:47:00;18.07;61.19
22917;DHT22;11624;53.250;7.456;2024-02-15T01:49:29;18.08;61.22
22917;DHT22;11624;53.250;7.456;2024-02-15T01:51:58;18.14;61.14
22917;DHT22;11624;53.250;7.456;2024-02-15T01:54:29;18.19;61.02
22917;DHT22;11624;53.250;7.456;2024-02-15T01:56:58;18.15;61.08
22917;DHT22;11624;53.250;7.456;2024-02-15T01:59:27;18.08;61.12
22917;DHT22;11624;53.250;7.456;2024-02-15T02:01:56;18.02;61.45
22917;DHT22;11624;53.250;7.456;2024-02-15T02:04:25;17.99;61.35
22917;DHT22;11624;53.250;7.456;2024-02-15T02:06:54;17.97;61.67
22917;DHT22;11624;53.250;7.456;2024-02-15T02:09:26;18.04;61.41
22917;DHT22;11624;53.250;7.456;2024-02-15T02:11:54;18.04;61.38
22917;DHT22;11624;53.250;7.456;2024-02-15T02:14:22;18.04;61.38
22917;DHT22;11624;53.250;7.456;2024-02-15T02:16:51;17.99;61.39
22917;DHT22;11624;53.250;7.456;2024-02-15T02:19:20;18.02;61.38
22917;DHT22;11624;53.250;7.456;2024-02-15T02:21:51;17.99;61.36
22917;DHT22;11624;53.250;7.456;2024-02-15T02:24:22;17.97;61.38
22917;DHT22;11624;53.250;7.456;2024-02-15T02:26:52;18.03;61.28
22917;DHT22;11624;53.250;7.456;2024-02-15T02:29:21;18.00;61.39
22917;DHT22;11624;53.250;7.456;2024-02-15T02:31:49;18.00;61.34
22917;DHT22;11624;53.250;7.456;2024-02-15T02:34:18;18.02;61.34
22917;DHT22;11624;53.250;7.456;2024-02-15T02:36:47;18.05;61.18
22917;DHT22;11624;53.250;7.456;2024-02-15T02:39:17;18.14;60.96
22917;DHT22;11624;53.250;7.456;2024-02-15T02:41:46;18.17;60.92
22917;DHT22;11624;53.250;7.456;2024-02-15T02:44:15;18.18;60.78
22917;DHT22;11624;53.250;7.456;2024-02-15T02:46:44;18.13;60.84
22917;DHT22;11624;53.250;7.456;2024-02-15T02:49:12;18.17;60.74
22917;DHT22;11624;53.250;7.456;2024-02-15T02:51:41;18.18;60.67
22917;DHT22;11624;53.250;7.456;2024-02-15T02:54:10;18.06;60.94
22917;DHT22;11624;53.250;7.456;2024-02-15T02:56:38;18.06;60.87
22917;DHT22;11624;53.250;7.456;2024-02-15T02:59:07;18.03;61.04
22917;DHT22;11624;53.250;7.456;2024-02-15T03:01:37;18.05;60.86
22917;DHT22;11624;53.250;7.456;2024-02-15T03:04:06;18.07;60.91
22917;DHT22;11624;53.250;7.456;2024-02-15T03:06:35;18.05;60.94
22917;DHT22;11624;53.250;7.456;2024-02-15T03:09:03;18.03;60.92
22917;DHT22;11624;53.250;7.456;2024-02-15T03:11:34;18.04;60.99
22917;DHT22;11624;53.250;7.456;2024-02-15T03:14:03;18.08;60.71
22917;DHT22;11624;53.250;7.456;2024-02-15T03:16:32;18.05;60.70
22917;DHT22;11624;53.250;7.456;2024-02-15T03:19:02;18.09;60.67
22917;DHT22;11624;53.250;7.456;2024-02-15T03:21:31;18.09;60.71
22917;DHT22;11624;53.250;7.456;2024-02-15T03:24:00;18.12;60.58
22917;DHT22;11624;53.250;7.456;2024-02-15T03:26:30;18.09;60.60
22917;DHT22;11624;53.250;7.456;2024-02-15T03:29:06;18.10;60.67
22917;DHT22;11624;53.250;7.456;2024-02-15T03:31:37;18.12;60.58
22917;DHT22;11624;53.250;7.456;2024-02-15T03:34:06;18.13;60.45
22917;DHT22;11624;53.250;7.456;2024-02-15T03:36:38;18.12;60.53
22917;DHT22;11624;53.250;7.456;2024-02-15T03:39:06;18.09;60.54
22917;DHT22;11624;53.250;7.456;2024-02-15T03:41:35;18.04;60.68
22917;DHT22;11624;53.250;7.456;2024-02-15T03:44:04;18.00;60.80
22917;DHT22;11624;53.250;7.456;2024-02-15T03:46:32;17.98;60.84
22917;DHT22;11624;53.250;7.456;2024-02-15T03:49:01;17.98;60.93
22917;DHT22;11624;53.250;7.456;2024-02-15T03:51:31;18.05;60.80
22917;DHT22;11624;53.250;7.456;2024-02-15T03:53:59;18.06;60.90
22917;DHT22;11624;53.250;7.456;2024-02-15T03:56:28;18.06;60.90
22917;DHT22;11624;53.250;7.456;2024-02-15T03:58:59;18.03;60.98
22917;DHT22;11624;53.250;7.456;2024-02-15T04:01:31;18.04;61.02
22917;DHT22;11624;53.250;7.456;2024-02-15T04:04:01;18.06;61.02
22917;DHT22;11624;53.250;7.456;2024-02-15T04:06:32;18.09;60.86
22917;DHT22;11624;53.250;7.456;2024-02-15T04:09:01;18.05;60.96
22917;DHT22;11624;53.250;7.456;2024-02-15T04:11:29;17.97;61.20
22917;DHT22;11624;53.250;7.456;2024-02-15T04:13:57;18.03;61.11
22917;DHT22;11624;53.250;7.456;2024-02-15T04:16:26;18.06;61.09
22917;DHT22;11624;53.250;7.456;2024-02-15T04:18:55;18.10;61.02
22917;DHT22;11624;53.250;7.456;2024-02-15T04:21:25;18.14;60.94
22917;DHT22;11624;53.250;7.456;2024-02-15T04:23:55;18.17;60.72
22917;DHT22;11624;53.250;7.456;2024-02-15T04:26:24;18.18;60.70
22917;DHT22;11624;53.250;7.456;2024-02-15T04:28:54;18.12;60.87
22917;DHT22;11624;53.250;7.456;2024-02-15T04:31:22;18.14;60.93
22917;DHT22;11624;53.250;7.456;2024-02-15T04:33:53;18.17;60.89
22917;DHT22;11624;53.250;7.456;2024-02-15T04:36:22;18.17;60.99
22917;DHT22;11624;53.250;7.456;2024-02-15T04:38:52;18.15;61.03
22917;DHT22;11624;53.250;7.456;2024-02-15T04:41:22;18.21;60.83
22917;DHT22;11624;53.250;7.456;2024-02-15T04:43:51;18.13;61.11
22917;DHT22;11624;53.250;7.456;2024-02-15T04:46:19;18.15;61.12
22917;DHT22;11624;53.250;7.456;2024-02-15T04:48:49;18.22;60.98
22917;DHT22;11624;53.250;7.456;2024-02-15T04:51:17;18.22;60.98
22917;DHT22;11624;53.250;7.456;2024-02-15T04:53:47;18.26;60.89
22917;DHT22;11624;53.250;7.456;2024-02-15T04:56:16;18.24;60.89
22917;DHT22;11624;53.250;7.456;2024-02-15T04:58:46;18.24;60.73
22917;DHT22;11624;53.250;7.456;2024-02-15T05:01:15;18.28;60.63
22917;DHT22;11624;53.250;7.456;2024-02-15T05:03:44;18.24;60.77
22917;DHT22;11624;53.250;7.456;2024-02-15T05:06:13;18.21;60.90
22917;DHT22;11624;53.250;7.456;2024-02-15T05:08:42;18.22;60.88
22917;DHT22;11624;53.250;7.456;2024-02-15T05:11:11;18.25;60.83
22917;DHT22;11624;53.250;7.456;2024-02-15T05:13:46;18.20;60.85
22917;DHT22;11624;53.250;7.456;2024-02-15T05:16:17;18.18;61.01
22917;DHT22;11624;53.250;7.456;2024-02-15T05:18:46;18.19;61.03
22917;DHT22;11624;53.250;7.456;2024-02-15T05:21:15;18.25;60.99
22917;DHT22;11624;53.250;7.456;2024-02-15T05:23:43;18.29;60.82
22917;DHT22;11624;53.250;7.456;2024-02-15T05:26:12;18.29;60.74
22917;DHT22;11624;53.250;7.456;2024-02-15T05:28:43;18.29;60.80
22917;DHT22;11624;53.250;7.456;2024-02-15T05:31:14;18.25;60.73
22917;DHT22;11624;53.250;7.456;2024-02-15T05:33:44;18.22;60.97
22917;DHT22;11624;53.250;7.456;2024-02-15T05:36:16;18.21;61.04
22917;DHT22;11624;53.250;7.456;2024-02-15T05:38:49;18.27;60.84
22917;DHT22;11624;53.250;7.456;2024-02-15T05:41:18;18.30;60.87
22917;DHT22;11624;53.250;7.456;2024-02-15T05:43:48;18.32;60.97
22917;DHT22;11624;53.250;7.456;2024-02-15T05:46:17;18.32;60.88
22917;DHT22;11624;53.250;7.456;2024-02-15T05:48:48;18.36;60.86
22917;DHT22;11624;53.250;7.456;2024-02-15T05:51:17;18.41;60.70
22917;DHT22;11624;53.250;7.456;2024-02-15T05:53:46;18.36;60.82
22917;DHT22;11624;53.250;7.456;2024-02-15T05:56:14;18.38;60.82
22917;DHT22;11624;53.250;7.456;2024-02-15T05:58:44;18.35;60.97
22917;DHT22;11624;53.250;7.456;2024-02-15T06:01:12;18.37;60.99
22917;DHT22;11624;53.250;7.456;2024-02-15T06:03:42;18.41;60.91
22917;DHT22;11624;53.250;7.456;2024-02-15T06:06:12;18.50;60.78
22917;DHT22;11624;53.250;7.456;2024-02-15T06:08:40;18.49;60.73
22917;DHT22;11624;53.250;7.456;2024-02-15T06:11:09;18.55;60.54
22917;DHT22;11624;53.250;7.456;2024-02-15T06:13:37;18.52;60.57
22917;DHT22;11624;53.250;7.456;2024-02-15T06:16:06;18.51;60.54
22917;DHT22;11624;53.250;7.456;2024-02-15T06:18:36;18.54;60.52
22917;DHT22;11624;53.250;7.456;2024-02-15T06:21:07;18.57;60.35
22917;DHT22;11624;53.250;7.456;2024-02-15T06:23:36;18.63;60.18
22917;DHT22;11624;53.250;7.456;2024-02-15T06:26:04;18.54;60.50
22917;DHT22;11624;53.250;7.456;2024-02-15T06:28:33;18.57;60.44
22917;DHT22;11624;53.250;7.456;2024-02-15T06:31:19;18.55;60.44
22917;DHT22;11624;53.250;7.456;2024-02-15T06:34:05;18.54;60.57
22917;DHT22;11624;53.250;7.456;2024-02-15T06:36:56;18.52;60.33
22917;DHT22;11624;53.250;7.456;2024-02-15T06:39:42;18.55;60.57
22917;DHT22;11624;53.250;7.456;2024-02-15T06:42:13;18.56;60.65
22917;DHT22;11624;53.250;7.456;2024-02-15T06:44:44;18.57;60.57
22917;DHT22;11624;53.250;7.456;2024-02-15T06:47:13;18.54;60.67
22917;DHT22;11624;53.250;7.456;2024-02-15T06:49:46;18.61;60.54
22917;DHT22;11624;53.250;7.456;2024-02-15T06:52:18;18.65;60.44
22917;DHT22;11624;53.250;7.456;2024-02-15T06:54:47;18.62;60.64
22917;DHT22;11624;53.250;7.456;2024-02-15T06:57:17;18.62;60.65
22917;DHT22;11624;53.250;7.456;2024-02-15T06:59:46;18.64;60.53
22917;DHT22;11624;53.250;7.456;2024-02-15T07:02:15;18.68;60.60
22917;DHT22;11624;53.250;7.456;2024-02-15T07:04:44;18.73;60.49
22917;DHT22;11624;53.250;7.456;2024-02-15T07:07:13;18.74;60.44
22917;DHT22;11624;53.250;7.456;2024-02-15T07:09:45;18.70;60.43
22917;DHT22;11624;53.250;7.456;2024-02-15T07:12:14;18.69;60.57
22917;DHT22;11624;53.250;7.456;2024-02-15T07:14:42;18.66;60.59
22917;DHT22;11624;53.250;7.456;2024-02-15T07:17:11;18.70;60.55
22917;DHT22;11624;53.250;7.456;2024-02-15T07:19:42;18.73;60.50
22917;DHT22;11624;53.250;7.456;2024-02-15T07:22:12;18.71;60.63
22917;DHT22;11624;53.250;7.456;2024-02-15T07:24:40;18.76;60.45
22917;DHT22;11624;53.250;7.456;2024-02-15T07:27:10;18.73;60.38
22917;DHT22;11624;53.250;7.456;2024-02-15T07:29:38;18.71;60.51
22917;DHT22;11624;53.250;7.456;2024-02-15T07:32:08;18.74;60.35
22917;DHT22;11624;53.250;7.456;2024-02-15T07:34:36;18.77;60.38
22917;DHT22;11624;53.250;7.456;2024-02-15T07:37:07;18.69;60.28
22917;DHT22;11624;53.250;7.456;2024-02-15T07:39:36;18.70;60.60
22917;DHT22;11624;53.250;7.456;2024-02-15T07:42:04;18.74;60.56
22917;DHT22;11624;53.250;7.456;2024-02-15T07:44:37;18.67;60.69
22917;DHT22;11624;53.250;7.456;2024-02-15T07:47:05;18.67;60.76
22917;DHT22;11624;53.250;7.456;2024-02-15T07:49:34;18.76;60.58
22917;DHT22;11624;53.250;7.456;2024-02-15T07:52:04;18.78;60.52
22917;DHT22;11624;53.250;7.456;2024-02-15T07:54:32;18.74;60.70
22917;DHT22;11624;53.250;7.456;2024-02-15T07:57:01;18.71;60.64
22917;DHT22;11624;53.250;7.456;2024-02-15T07:59:31;18.79;60.68
22917;DHT22;11624;53.250;7.456;2024-02-15T08:02:01;18.84;60.63
22917;DHT22;11624;53.250;7.456;2024-02-15T08:04:29;18.89;60.45
22917;DHT22;11624;53.250;7.456;2024-02-15T08:06:58;18.88;60.38
22917;DHT22;11624;53.250;7.456;2024-02-15T08:09:27;18.88;60.50
22917;DHT22;11624;53.250;7.456;2024-02-15T08:11:55;18.89;60.60
22917;DHT22;11624;53.250;7.456;2024-02-15T08:14:25;18.96;60.39
22917;DHT22;11624;53.250;7.456;2024-02-15T08:16:54;18.93;60.42
22917;DHT22;11624;53.250;7.456;2024-02-15T08:19:24;18.97;60.31
22917;DHT22;11624;53.250;7.456;2024-02-15T08:21:56;19.00;60.22
22917;DHT22;11624;53.250;7.456;2024-02-15T08:24:24;19.00;60.09
22917;DHT22;11624;53.250;7.456;2024-02-15T08:26:53;18.95;60.03
22917;DHT22;11624;53.250;7.456;2024-02-15T08:29:21;18.83;60.39
22917;DHT22;11624;53.250;7.456;2024-02-15T08:31:50;18.87;60.39
22917;DHT22;11624;53.250;7.456;2024-02-15T08:34:18;18.92;60.24
22917;DHT22;11624;53.250;7.456;2024-02-15T08:36:49;18.85;60.33
22917;DHT22;11624;53.250;7.456;2024-02-15T08:39:17;18.87;60.33
22917;DHT22;11624;53.250;7.456;2024-02-15T08:41:46;18.94;60.23
22917;DHT22;11624;53.250;7.456;2024-02-15T08:44:14;18.97;60.16
22917;DHT22;11624;53.250;7.456;2024-02-15T08:46:46;18.93;60.25
22917;DHT22;11624;53.250;7.456;2024-02-15T08:49:17;18.93;60.15
22917;DHT22;11624;53.250;7.456;2024-02-15T08:51:45;18.88;60.27
22917;DHT22;11624;53.250;7.456;2024-02-15T08:54:15;18.91;59.84
22917;DHT22;11624;53.250;7.456;2024-02-15T08:56:44;18.89;60.13
22917;DHT22;11624;53.250;7.456;2024-02-15T08:59:12;18.88;60.24
22917;DHT22;11624;53.250;7.456;2024-02-15T09:01:42;18.85;60.25
22917;DHT22;11624;53.250;7.456;2024-02-15T09:04:12;18.79;60.35
22917;DHT22;11624;53.250;7.456;2024-02-15T09:06:41;18.86;60.25
22917;DHT22;11624;53.250;7.456;2024-02-15T09:09:10;18.85;60.27
22917;DHT22;11624;53.250;7.456;2024-02-15T09:11:40;18.82;60.41
22917;DHT22;11624;53.250;7.456;2024-02-15T09:14:08;18.83;60.41
22917;DHT22;11624;53.250;7.456;2024-02-15T09:16:37;18.74;60.55
22917;DHT22;11624;53.250;7.456;2024-02-15T09:19:06;18.73;60.73
22917;DHT22;11624;53.250;7.456;2024-02-15T09:21:35;18.69;60.78
22917;DHT22;11624;53.250;7.456;2024-02-15T09:24:04;18.70;60.86
22917;DHT22;11624;53.250;7.456;2024-02-15T09:26:33;18.67;60.91
22917;DHT22;11624;53.250;7.456;2024-02-15T09:29:03;18.71;60.79
22917;DHT22;11624;53.250;7.456;2024-02-15T09:31:34;18.77;60.70
22917;DHT22;11624;53.250;7.456;2024-02-15T09:34:03;18.70;60.88
22917;DHT22;11624;53.250;7.456;2024-02-15T09:36:34;18.70;60.93
22917;DHT22;11624;53.250;7.456;2024-02-15T09:39:05;18.67;61.18
22917;DHT22;11624;53.250;7.456;2024-02-15T09:41:33;18.70;61.17
22917;DHT22;11624;53.250;7.456;2024-02-15T09:44:03;18.74;60.86
22917;DHT22;11624;53.250;7.456;2024-02-15T09:46:35;18.79;60.61
22917;DHT22;11624;53.250;7.456;2024-02-15T09:49:05;18.70;61.04
22917;DHT22;11624;53.250;7.456;2024-02-15T09:51:35;18.68;61.15
22917;DHT22;11624;53.250;7.456;2024-02-15T09:54:04;18.72;61.20
22917;DHT22;11624;53.250;7.456;2024-02-15T09:56:37;18.77;61.11
22917;DHT22;11624;53.250;7.456;2024-02-15T09:59:07;18.79;61.27
22917;DHT22;11624;53.250;7.456;2024-02-15T10:01:37;18.87;61.08
22917;DHT22;11624;53.250;7.456;2024-02-15T10:04:07;18.78;61.21
22917;DHT22;11624;53.250;7.456;2024-02-15T10:06:36;18.85;61.11
22917;DHT22;11624;53.250;7.456;2024-02-15T10:09:26;18.82;60.92
22917;DHT22;11624;53.250;7.456;2024-02-15T10:11:56;18.83;61.20
22917;DHT22;11624;53.250;7.456;2024-02-15T10:14:28;18.88;61.11
22917;DHT22;11624;53.250;7.456;2024-02-15T10:16:56;18.95;61.06
22917;DHT22;11624;53.250;7.456;2024-02-15T10:19:33;18.94;61.11
22917;DHT22;11624;53.250;7.456;2024-02-15T10:22:06;19.00;60.54
22917;DHT22;11624;53.250;7.456;2024-02-15T10:24:35;19.01;60.98
22917;DHT22;11624;53.250;7.456;2024-02-15T10:27:07;18.94;60.83
22917;DHT22;11624;53.250;7.456;2024-02-15T10:29:39;18.95;61.13
22917;DHT22;11624;53.250;7.456;2024-02-15T10:32:08;19.02;61.09
22917;DHT22;11624;53.250;7.456;2024-02-15T10:34:43;19.09;60.46
22917;DHT22;11624;53.250;7.456;2024-02-15T10:37:14;19.12;60.69
22917;DHT22;11624;53.250;7.456;2024-02-15T10:39:44;19.05;60.89
22917;DHT22;11624;53.250;7.456;2024-02-15T10:42:14;18.98;61.17
22917;DHT22;11624;53.250;7.456;2024-02-15T10:44:46;19.13;60.89
22917;DHT22;11624;53.250;7.456;2024-02-15T10:47:16;19.22;60.76
22917;DHT22;11624;53.250;7.456;2024-02-15T10:49:46;19.25;60.76
22917;DHT22;11624;53.250;7.456;2024-02-15T10:52:16;19.32;60.70
22917;DHT22;11624;53.250;7.456;2024-02-15T10:54:48;19.35;60.68
22917;DHT22;11624;53.250;7.456;2024-02-15T10:57:21;19.32;60.78
22917;DHT22;11624;53.250;7.456;2024-02-15T10:59:56;19.46;60.23
22917;DHT22;11624;53.250;7.456;2024-02-15T11:02:27;19.62;60.73
22917;DHT22;11624;53.250;7.456;2024-02-15T11:05:02;19.76;59.85
22917;DHT22;11624;53.250;7.456;2024-02-15T11:07:32;19.75;60.07
22917;DHT22;11624;53.250;7.456;2024-02-15T11:10:03;19.76;59.71
22917;DHT22;11624;53.250;7.456;2024-02-15T11:12:35;19.86;59.75
22917;DHT22;11624;53.250;7.456;2024-02-15T11:15:08;19.86;59.64
22917;DHT22;11624;53.250;7.456;2024-02-15T11:17:46;19.76;59.40
22917;DHT22;11624;53.250;7.456;2024-02-15T11:20:46;19.66;59.83
22917;DHT22;11624;53.250;7.456;2024-02-15T11:23:27;19.71;59.57
22917;DHT22;11624;53.250;7.456;2024-02-15T11:25:58;19.87;60.00
22917;DHT22;11624;53.250;7.456;2024-02-15T11:28:42;19.86;59.48
22917;DHT22;11624;53.250;7.456;2024-02-15T11:31:55;19.84;59.69
22917;DHT22;11624;53.250;7.456;2024-02-15T11:34:43;19.83;59.70
22917;DHT22;11624;53.250;7.456;2024-02-15T11:37:50;19.90;59.38
22917;DHT22;11624;53.250;7.456;2024-02-15T11:40:21;19.91;59.61
22917;DHT22;11624;53.250;7.456;2024-02-15T11:42:54;19.79;59.57
22917;DHT22;11624;53.250;7.456;2024-02-15T11:45:24;19.82;59.44
22917;DHT22;11624;53.250;7.456;2024-02-15T11:47:55;19.82;59.41
22917;DHT22;11624;53.250;7.456;2024-02-15T11:50:23;19.85;59.50
22917;DHT22;11624;53.250;7.456;2024-02-15T11:52:52;19.74;59.41
22917;DHT22;11624;53.250;7.456;2024-02-15T11:55:32;19.76;59.51
22917;DHT22;11624;53.250;7.456;2024-02-15T11:58:02;19.81;59.48
22917;DHT22;11624;53.250;7.456;2024-02-15T12:00:32;19.77;59.46
22917;DHT22;11624;53.250;7.456;2024-02-15T12:03:20;19.75;59.19
22917;DHT22;11624;53.250;7.456;2024-02-15T12:06:17;19.61;59.44
22917;DHT22;11624;53.250;7.456;2024-02-15T12:09:03;19.56;59.46
22917;DHT22;11624;53.250;7.456;2024-02-15T12:11:57;19.52;59.12
22917;DHT22;11624;53.250;7.456;2024-02-15T12:14:44;19.47;59.52
22917;DHT22;11624;53.250;7.456;2024-02-15T12:17:30;19.45;59.58
22917;DHT22;11624;53.250;7.456;2024-02-15T12:20:18;19.46;59.65
22917;DHT22;11624;53.250;7.456;2024-02-15T12:22:52;19.39;59.84
22917;DHT22;11624;53.250;7.456;2024-02-15T12:25:21;19.45;59.66
22917;DHT22;11624;53.250;7.456;2024-02-15T12:27:53;19.53;59.54
22917;DHT22;11624;53.250;7.456;2024-02-15T12:30:22;19.55;59.48
22917;DHT22;11624;53.250;7.456;2024-02-15T12:32:53;19.52;59.63
22917;DHT22;11624;53.250;7.456;2024-02-15T12:35:38;19.48;59.65
22917;DHT22;11624;53.250;7.456;2024-02-15T12:38:07;19.44;59.88
22917;DHT22;11624;53.250;7.456;2024-02-15T12:40:38;19.48;59.69
22917;DHT22;11624;53.250;7.456;2024-02-15T12:43:12;19.42;59.77
22917;DHT22;11624;53.250;7.456;2024-02-15T12:45:41;19.33;60.16
22917;DHT22;11624;53.250;7.456;2024-02-15T12:48:10;19.38;60.08
22917;DHT22;11624;53.250;7.456;2024-02-15T12:50:40;19.45;59.74
22917;DHT22;11624;53.250;7.456;2024-02-15T12:53:09;19.43;59.83
22917;DHT22;11624;53.250;7.456;2024-02-15T12:55:39;19.45;59.83
22917;DHT22;11624;53.250;7.456;2024-02-15T12:58:13;19.56;59.41
22917;DHT22;11624;53.250;7.456;2024-02-15T13:00:43;19.57;59.59
22917;DHT22;11624;53.250;7.456;2024-02-15T13:03:12;19.53;59.75
22917;DHT22;11624;53.250;7.456;2024-02-15T13:05:43;19.53;59.51
22917;DHT22;11624;53.250;7.456;2024-02-15T13:08:12;19.56;59.80
22917;DHT22;11624;53.250;7.456;2024-02-15T13:10:42;19.56;59.72
22917;DHT22;11624;53.250;7.456;2024-02-15T13:13:11;19.55;59.61
22917;DHT22;11624;53.250;7.456;2024-02-15T13:15:41;19.46;59.95
22917;DHT22;11624;53.250;7.456;2024-02-15T13:18:11;19.43;59.99
22917;DHT22;11624;53.250;7.456;2024-02-15T13:20:43;19.45;60.04
22917;DHT22;11624;53.250;7.456;2024-02-15T13:23:11;19.55;59.85
22917;DHT22;11624;53.250;7.456;2024-02-15T13:25:46;19.56;59.87
22917;DHT22;11624;53.250;7.456;2024-02-15T13:28:15;19.60;59.69
22917;DHT22;11624;53.250;7.456;2024-02-15T13:30:45;19.59;59.62
22917;DHT22;11624;53.250;7.456;2024-02-15T13:33:16;19.63;59.54
22917;DHT22;11624;53.250;7.456;2024-02-15T13:35:46;19.62;59.44
22917;DHT22;11624;53.250;7.456;2024-02-15T13:38:16;19.63;59.43
22917;DHT22;11624;53.250;7.456;2024-02-15T13:40:51;19.68;59.45
22917;DHT22;11624;53.250;7.456;2024-02-15T13:43:23;19.65;59.44
22917;DHT22;11624;53.250;7.456;2024-02-15T13:45:51;19.61;59.46
22917;DHT22;11624;53.250;7.456;2024-02-15T13:48:21;19.62;59.29
22917;DHT22;11624;53.250;7.456;2024-02-15T13:50:53;19.60;59.24
22917;DHT22;11624;53.250;7.456;2024-02-15T13:53:22;19.58;59.13
22917;DHT22;11624;53.250;7.456;2024-02-15T13:55:52;19.52;59.43
22917;DHT22;11624;53.250;7.456;2024-02-15T13:58:20;19.63;59.14
22917;DHT22;11624;53.250;7.456;2024-02-15T14:00:50;19.62;59.22
22917;DHT22;11624;53.250;7.456;2024-02-15T14:03:19;19.65;59.26
22917;DHT22;11624;53.250;7.456;2024-02-15T14:05:49;19.72;58.87
22917;DHT22;11624;53.250;7.456;2024-02-15T14:08:19;19.71;58.90
22917;DHT22;11624;53.250;7.456;2024-02-15T14:10:49;19.72;59.02
22917;DHT22;11624;53.250;7.456;2024-02-15T14:13:18;19.65;59.12
22917;DHT22;11624;53.250;7.456;2024-02-15T14:15:49;19.57;59.15
22917;DHT22;11624;53.250;7.456;2024-02-15T14:18:19;19.45;59.32
22917;DHT22;11624;53.250;7.456;2024-02-15T14:20:47;19.40;59.42
22917;DHT22;11624;53.250;7.456;2024-02-15T14:23:19;19.39;59.36
22917;DHT22;11624;53.250;7.456;2024-02-15T14:25:48;19.45;59.25
22917;DHT22;11624;53.250;7.456;2024-02-15T14:28:17;19.43;59.30
22917;DHT22;11624;53.250;7.456;2024-02-15T14:30:45;19.44;59.16
22917;DHT22;11624;53.250;7.456;2024-02-15T14:33:31;19.42;59.28
22917;DHT22;11624;53.250;7.456;2024-02-15T14:36:02;19.37;59.49
22917;DHT22;11624;53.250;7.456;2024-02-15T14:38:33;19.33;59.55
22917;DHT22;11624;53.250;7.456;2024-02-15T14:41:02;19.30;59.73
22917;DHT22;11624;53.250;7.456;2024-02-15T14:43:35;19.40;59.49
22917;DHT22;11624;53.250;7.456;2024-02-15T14:46:03;19.36;59.50
22917;DHT22;11624;53.250;7.456;2024-02-15T14:48:35;19.41;59.51
22917;DHT22;11624;53.250;7.456;2024-02-15T14:51:07;19.46;59.35
22917;DHT22;11624;53.250;7.456;2024-02-15T14:53:38;19.43;59.33
22917;DHT22;11624;53.250;7.456;2024-02-15T14:56:07;19.35;59.62
22917;DHT22;11624;53.250;7.456;2024-02-15T14:58:36;19.42;59.27
22917;DHT22;11624;53.250;7.456;2024-02-15T15:01:05;19.39;59.41
22917;DHT22;11624;53.250;7.456;2024-02-15T15:03:36;19.35;59.49
22917;DHT22;11624;53.250;7.456;2024-02-15T15:06:07;19.33;59.61
22917;DHT22;11624;53.250;7.456;2024-02-15T15:08:55;19.36;59.50
22917;DHT22;11624;53.250;7.456;2024-02-15T15:11:43;19.37;59.64
22917;DHT22;11624;53.250;7.456;2024-02-15T15:14:29;19.37;59.54
22917;DHT22;11624;53.250;7.456;2024-02-15T15:16:57;19.38;59.48
22917;DHT22;11624;53.250;7.456;2024-02-15T15:19:30;19.38;59.67
22917;DHT22;11624;53.250;7.456;2024-02-15T15:21:58;19.50;59.49
22917;DHT22;11624;53.250;7.456;2024-02-15T15:24:28;19.54;59.28
22917;DHT22;11624;53.250;7.456;2024-02-15T15:26:57;19.57;59.22
22917;DHT22;11624;53.250;7.456;2024-02-15T15:29:26;19.60;59.28
22917;DHT22;11624;53.250;7.456;2024-02-15T15:31:55;19.66;59.11
22917;DHT22;11624;53.250;7.456;2024-02-15T15:34:24;19.69;59.05
22917;DHT22;11624;53.250;7.456;2024-02-15T15:36:56;19.68;58.83
22917;DHT22;11624;53.250;7.456;2024-02-15T15:39:24;19.61;58.95
22917;DHT22;11624;53.250;7.456;2024-02-15T15:41:55;19.59;58.94
22917;DHT22;11624;53.250;7.456;2024-02-15T15:44:23;19.60;59.06
22917;DHT22;11624;53.250;7.456;2024-02-15T15:46:54;19.57;59.19
22917;DHT22;11624;53.250;7.456;2024-02-15T15:49:24;19.61;59.16
22917;DHT22;11624;53.250;7.456;2024-02-15T15:51:52;19.62;58.96